Time;durP1;ratioP1;P1;durP2;ratioP2;P2;SDS_P1;SDS_P2;PMS_P1;PMS_P2;Temp;Humidity;BMP_temperature;BMP_pressure;BME280_temperature;BME280_humidity;BME280_pressure;Samples;Min_cycle;Max_cycle;Signal;HPM_P1;HPM_P2
2021/09/27 00:03:18;;;;;;;1.93;1.73;;;20.60;99.90;;;;;;20489030;23;20558;-69
2021/09/27 00:13:23;;;;;;;1.53;1.43;;;20.60;99.90;;;;;;20581420;28;20559;-69
2021/09/27 00:23:31;;;;;;;1.23;0.80;;;20.60;99.90;;;;;;20627511;28;20697;-69
2021/09/27 00:33:34;;;;;;;3.83;2.00;;;20.50;99.90;;;;;;20664598;28;20203;-68
2021/09/27 00:43:41;;;;;;;4.83;1.20;;;20.40;99.90;;;;;;20664511;28;20227;-68
2021/09/27 00:53:48;;;;;;;2.00;1.23;;;20.40;99.90;;;;;;20664331;28;20223;-68
2021/09/27 01:03:54;;;;;;;1.40;1.33;;;20.10;99.90;;;;;;20662967;28;20236;-67
2021/09/27 01:14:17;;;;;;;2.30;1.70;;;20.10;99.90;;;;;;20645041;28;20294;-68
2021/09/27 01:25:11;;;;;;;1.73;1.63;;;20.10;99.90;;;;;;20610459;28;20220;-68
2021/09/27 01:35:32;;;;;;;1.13;0.73;;;19.90;99.90;;;;;;20544020;28;20226;-68
2021/09/27 01:45:42;;;;;;;1.77;1.63;;;19.80;99.90;;;;;;20578154;28;20224;-68
2021/09/27 01:55:53;;;;;;;3.33;1.93;;;19.80;99.90;;;;;;20578270;28;20195;-67
2021/09/27 02:06:05;;;;;;;5.40;1.80;;;19.70;99.90;;;;;;20577826;28;20234;-67
2021/09/27 02:16:21;;;;;;;1.60;1.37;;;19.70;99.90;;;;;;20577251;28;20200;-66
2021/09/27 02:26:25;;;;;;;4.33;0.97;;;19.70;99.90;;;;;;20625334;28;20277;-67
2021/09/27 02:36:36;;;;;;;2.43;1.47;;;19.60;99.90;;;;;;20655155;28;20290;-67
2021/09/27 02:46:43;;;;;;;1.20;1.10;;;19.60;99.90;;;;;;20638437;28;20261;-67
2021/09/27 02:57:04;;;;;;;0.50;0.50;;;19.60;99.90;;;;;;20637921;28;20540;-68
2021/09/27 03:07:21;;;;;;;1.40;1.23;;;19.60;99.90;;;;;;20522766;23;20765;-79
2021/09/27 03:17:35;;;;;;;4.77;2.60;;;19.70;99.90;;;;;;20494586;28;20204;-77
2021/09/27 03:27:49;;;;;;;1.43;1.33;;;19.60;99.90;;;;;;20569203;28;20224;-76
2021/09/27 03:38:04;;;;;;;1.13;1.03;;;19.70;99.90;;;;;;20555791;28;20199;-76
2021/09/27 03:48:14;;;;;;;0.40;0.40;;;19.50;99.90;;;;;;20581918;28;20234;-79
2021/09/27 03:58:27;;;;;;;2.37;1.77;;;19.40;99.90;;;;;;20587518;28;20214;-77
2021/09/27 04:08:38;;;;;;;4.77;1.57;;;19.40;99.90;;;;;;20587843;28;20300;-80
2021/09/27 04:18:53;;;;;;;2.70;1.63;;;19.40;99.90;;;;;;20560156;28;20597;-76
2021/09/27 04:29:33;;;;;;;1.17;0.90;;;19.60;99.90;;;;;;20567795;28;20210;-77
2021/09/27 04:39:40;;;;;;;1.10;0.83;;;19.70;99.90;;;;;;20584416;28;20303;-77
2021/09/27 04:50:04;;;;;;;1.17;1.00;;;19.90;99.90;;;;;;20584682;28;20299;-79
2021/09/27 05:00:18;;;;;;;0.77;0.77;;;19.90;99.90;;;;;;20582049;28;20232;-79
2021/09/27 05:10:45;;;;;;;1.03;0.90;;;19.90;99.90;;;;;;20581118;28;20204;-82
2021/09/27 05:21:15;;;;;;;1.13;1.03;;;19.70;99.90;;;;;;20559367;28;20225;-79
2021/09/27 05:31:33;;;;;;;4.20;1.47;;;19.80;99.90;;;;;;20500072;29;20209;-79
2021/09/27 05:41:54;;;;;;;2.20;0.80;;;20.60;99.90;;;;;;20485580;29;20229;-78
2021/09/27 05:52:03;;;;;;;0.97;0.93;;;21.20;99.90;;;;;;20495181;29;20227;-78
2021/09/27 06:02:15;;;;;;;3.20;0.97;;;21.30;99.90;;;;;;20491015;29;20291;-79
2021/09/27 06:12:24;;;;;;;4.07;1.10;;;21.30;99.90;;;;;;20491417;28;20215;-77
2021/09/27 06:23:00;;;;;;;1.03;0.93;;;21.40;99.90;;;;;;20527956;28;20648;-78
2021/09/27 06:33:14;;;;;;;1.63;1.53;;;21.60;99.90;;;;;;20548186;28;20209;-77
2021/09/27 06:43:22;;;;;;;2.20;1.03;;;21.80;99.90;;;;;;20468614;28;20220;-81
2021/09/27 06:53:28;;;;;;;1.00;0.83;;;22.00;99.90;;;;;;20439596;28;20300;-77
2021/09/27 07:03:34;;;;;;;3.25;2.33;;;22.10;99.90;;;;;;20471295;28;20706;-79
2021/09/27 07:13:37;;;;;;;0.77;0.70;;;22.20;99.90;;;;;;20429384;28;20206;-78
2021/09/27 07:23:43;;;;;;;0.47;0.43;;;22.50;99.90;;;;;;20510920;28;20286;-79
2021/09/27 07:33:46;;;;;;;1.38;0.82;;;22.90;99.90;;;;;;20587192;28;20713;-76
2021/09/27 07:43:51;;;;;;;0.50;0.30;;;23.10;99.90;;;;;;20586546;28;20238;-78
2021/09/27 07:53:55;;;;;;;2.47;1.45;;;23.00;99.90;;;;;;20585556;28;20288;-76
2021/09/27 08:04:00;;;;;;;1.92;0.57;;;23.20;99.90;;;;;;20490976;28;20588;-81
2021/09/27 08:14:04;;;;;;;0.70;0.70;;;23.70;99.90;;;;;;20488425;28;20244;-81
2021/09/27 08:24:09;;;;;;;0.85;0.77;;;24.50;99.90;;;;;;20509649;28;20315;-81
2021/09/27 08:34:13;;;;;;;5.07;0.52;;;24.70;99.90;;;;;;20505173;28;20193;-80
2021/09/27 08:44:43;;;;;;;0.40;0.40;;;24.20;99.90;;;;;;20506998;28;20331;-81
2021/09/27 08:54:50;;;;;;;1.30;0.98;;;24.60;99.90;;;;;;20454965;28;20288;-75
2021/09/27 09:05:13;;;;;;;1.23;0.75;;;25.20;99.90;;;;;;20421680;29;20324;-78
2021/09/27 09:15:20;;;;;;;5.32;0.38;;;25.50;99.90;;;;;;20426174;29;20194;-80
2021/09/27 09:25:31;;;;;;;0.73;0.73;;;25.70;99.90;;;;;;20487035;28;20231;-75
2021/09/27 09:35:35;;;;;;;1.92;0.75;;;25.70;99.90;;;;;;20500812;28;20656;-81
2021/09/27 09:45:43;;;;;;;1.60;0.68;;;25.80;99.90;;;;;;20403823;29;20249;-87
2021/09/27 09:56:04;;;;;;;1.10;0.73;;;26.30;99.90;;;;;;20404786;29;20221;-78
2021/09/27 10:06:15;;;;;;;0.73;0.68;;;26.80;99.90;;;;;;20419126;29;20265;-80
2021/09/27 10:16:41;;;;;;;0.95;0.50;;;27.30;99.90;;;;;;20418053;29;20671;-77
2021/09/27 10:26:51;;;;;;;3.67;0.90;;;27.70;99.90;;;;;;20489368;28;20233;-85
2021/09/27 10:37:01;;;;;;;0.50;0.50;;;28.10;99.90;;;;;;20415463;29;20264;-79
2021/09/27 10:47:13;;;;;;;3.17;1.73;;;28.60;99.90;;;;;;20397591;29;20249;-82
2021/09/27 10:57:20;;;;;;;1.02;0.57;;;29.00;99.90;;;;;;20412834;29;20285;-77
2021/09/27 11:07:35;;;;;;;1.33;0.80;;;29.50;99.90;;;;;;20412645;29;20331;-76
2021/09/27 11:18:07;;;;;;;2.42;1.60;;;29.70;99.90;;;;;;20413988;29;20197;-81
2021/09/27 11:28:29;;;;;;;1.67;1.27;;;29.70;99.90;;;;;;20413803;29;20229;-81
2021/09/27 11:38:36;;;;;;;2.13;1.95;;;30.10;99.90;;;;;;20413915;29;20280;-81
2021/09/27 11:48:54;;;;;;;2.33;1.63;;;29.30;99.90;;;;;;20426071;28;20260;-75
2021/09/27 11:59:06;;;;;;;0.93;0.93;;;29.30;99.90;;;;;;20413242;29;20306;-72
2021/09/27 12:09:19;;;;;;;1.55;1.40;;;29.20;99.90;;;;;;20419400;29;20247;-78
2021/09/27 12:19:26;;;;;;;1.98;1.83;;;29.70;99.90;;;;;;20485544;28;20235;-76
2021/09/27 12:29:32;;;;;;;2.97;2.25;;;30.60;99.90;;;;;;20575832;28;20759;-75
2021/09/27 12:39:36;;;;;;;2.95;1.90;;;30.80;99.90;;;;;;20571384;28;20204;-76
2021/09/27 12:49:47;;;;;;;2.33;1.42;;;30.20;99.90;;;;;;20578379;28;20224;-73
2021/09/27 12:59:52;;;;;;;2.67;2.33;;;30.90;99.90;;;;;;20579607;28;20331;-76
2021/09/27 13:10:04;;;;;;;1.75;1.48;;;30.80;99.90;;;;;;20577540;28;20623;-78
2021/09/27 13:20:34;;;;;;;3.80;1.92;;;32.70;99.90;;;;;;20531454;28;20226;-76
2021/09/27 13:30:40;;;;;;;9.98;1.60;;;32.60;99.90;;;;;;20574887;28;20319;-80
2021/09/27 13:40:46;;;;;;;2.33;1.38;;;32.50;99.90;;;;;;20511038;28;20713;-78
2021/09/27 13:50:54;;;;;;;2.95;2.53;;;33.10;99.90;;;;;;20478398;28;20201;-77
2021/09/27 14:00:58;;;;;;;3.92;2.72;;;33.00;99.90;;;;;;20492011;28;20327;-81
2021/09/27 14:11:04;;;;;;;1.65;1.10;;;33.60;99.90;;;;;;20491220;28;20197;-79
2021/09/27 14:21:09;;;;;;;1.75;1.60;;;33.10;99.90;;;;;;20517878;28;20222;-83
2021/09/27 14:31:14;;;;;;;2.72;1.60;;;33.20;99.90;;;;;;20573051;28;20200;-85
2021/09/27 14:41:19;;;;;;;9.13;1.85;;;33.50;99.90;;;;;;20574248;28;20722;-76
2021/09/27 14:51:27;;;;;;;2.03;1.25;;;33.10;99.90;;;;;;20519759;28;20651;-80
2021/09/27 15:01:31;;;;;;;3.10;1.40;;;31.90;99.90;;;;;;20475509;28;20347;-80
2021/09/27 15:11:42;;;;;;;0.20;0.00;;;33.00;99.90;;;;;;20491953;28;20212;-79
2021/09/27 15:21:48;;;;;;;1.08;1.00;;;32.70;99.90;;;;;;20476010;28;20266;-77
2021/09/27 15:31:57;;;;;;;2.10;1.50;;;31.60;99.90;;;;;;20489096;29;20280;-81
2021/09/27 15:42:02;;;;;;;1.35;1.25;;;30.60;99.90;;;;;;20495460;28;20609;-77
2021/09/27 15:52:08;;;;;;;2.20;1.60;;;29.80;99.90;;;;;;20503213;28;20201;-78
2021/09/27 16:02:12;;;;;;;2.03;1.10;;;29.70;99.90;;;;;;20502595;28;20751;-75
2021/09/27 16:12:18;;;;;;;0.75;0.75;;;28.40;99.90;;;;;;20501233;28;20200;-79
2021/09/27 16:22:21;;;;;;;2.08;1.33;;;27.70;99.90;;;;;;20500401;28;20220;-77
2021/09/27 16:32:27;;;;;;;0.98;0.88;;;27.20;99.90;;;;;;20503149;29;20280;-75
2021/09/27 16:42:31;;;;;;;0.68;0.60;;;27.10;99.90;;;;;;20501351;29;20288;-78
2021/09/27 16:52:36;;;;;;;2.58;1.17;;;27.10;99.90;;;;;;20497967;28;20220;-78
2021/09/27 17:02:39;;;;;;;2.75;1.45;;;27.00;99.90;;;;;;20478881;28;20232;-77
2021/09/27 17:12:45;;;;;;;1.52;0.82;;;26.60;99.90;;;;;;20483409;28;20300;-77
2021/09/27 17:22:55;;;;;;;1.50;1.13;;;26.10;99.90;;;;;;20535765;28;20224;-76
2021/09/27 17:33:01;;;;;;;1.02;0.93;;;26.10;99.90;;;;;;20563147;28;20235;-75
2021/09/27 17:43:05;;;;;;;1.77;1.63;;;26.00;99.90;;;;;;20495701;28;20311;-73
2021/09/27 17:53:10;;;;;;;4.25;1.35;;;25.60;99.90;;;;;;20457417;28;20206;-78
2021/09/27 18:03:14;;;;;;;3.83;2.08;;;25.30;99.90;;;;;;20415046;29;20288;-74
2021/09/27 18:13:20;;;;;;;7.00;2.28;;;24.80;99.90;;;;;;20412753;29;20189;-77
2021/09/27 18:23:25;;;;;;;2.33;2.15;;;24.70;99.90;;;;;;20495311;28;20232;-77
2021/09/27 18:33:30;;;;;;;1.42;1.33;;;24.50;99.90;;;;;;20554942;28;20618;-79
2021/09/27 18:43:35;;;;;;;0.20;0.00;;;24.10;99.90;;;;;;20493440;28;20776;-76
2021/09/27 18:53:43;;;;;;;0.77;0.50;;;24.00;99.90;;;;;;20494297;28;20305;-76
2021/09/27 19:03:48;;;;;;;4.53;1.88;;;23.90;99.90;;;;;;20442753;28;20251;-76
2021/09/27 19:13:53;;;;;;;1.38;0.95;;;23.80;99.90;;;;;;20416856;28;20291;-75
2021/09/27 19:23:58;;;;;;;1.90;1.80;;;23.70;99.90;;;;;;20527970;28;20311;-75
2021/09/27 19:34:03;;;;;;;1.25;1.05;;;23.50;99.90;;;;;;20489482;28;20209;-76
2021/09/27 19:44:08;;;;;;;0.60;0.45;;;23.40;99.90;;;;;;20470031;28;20220;-75
2021/09/27 19:54:13;;;;;;;5.90;2.20;;;23.20;99.90;;;;;;20535281;28;20193;-75
2021/09/27 20:04:16;;;;;;;4.88;1.33;;;22.80;99.90;;;;;;20550071;28;20347;-74
2021/09/27 20:14:23;;;;;;;0.40;0.40;;;22.60;99.90;;;;;;20549891;28;20428;-76
2021/09/27 20:24:27;;;;;;;0.63;0.63;;;22.20;99.90;;;;;;20552810;28;20224;-74
2021/09/27 20:34:32;;;;;;;1.43;0.63;;;21.90;99.90;;;;;;20500766;28;20226;-75
2021/09/27 20:44:36;;;;;;;4.97;1.53;;;21.60;99.90;;;;;;20500104;28;20702;-74
2021/09/27 20:54:40;;;;;;;3.00;1.50;;;21.40;99.90;;;;;;20499650;28;20211;-76
2021/09/27 21:04:44;;;;;;;0.40;0.40;;;21.40;99.90;;;;;;20481550;28;20267;-78
2021/09/27 21:14:50;;;;;;;4.00;0.70;;;21.20;99.90;;;;;;20481345;28;20288;-75
2021/09/27 21:24:53;;;;;;;0.47;0.47;;;21.20;99.90;;;;;;20516547;28;20489;-74
2021/09/27 21:34:59;;;;;;;0.30;0.30;;;21.00;99.90;;;;;;20531607;28;20196;-75
2021/09/27 21:45:03;;;;;;;0.93;0.67;;;20.70;99.90;;;;;;20497943;28;20287;-75
2021/09/27 21:55:10;;;;;;;2.73;0.57;;;20.60;99.90;;;;;;20497770;28;20200;-75
2021/09/27 22:05:15;;;;;;;0.80;0.80;;;20.60;99.90;;;;;;20497424;28;20237;-74
2021/09/27 22:15:20;;;;;;;0.40;0.40;;;20.50;99.90;;;;;;20496700;28;20193;-75
2021/09/27 22:25:26;;;;;;;1.90;0.97;;;20.40;99.90;;;;;;20519202;28;20638;-73
2021/09/27 22:35:33;;;;;;;1.03;0.67;;;20.40;99.90;;;;;;20540808;28;20283;-73
2021/09/27 22:45:38;;;;;;;4.30;1.37;;;20.40;99.90;;;;;;20477190;28;20232;-73
2021/09/27 22:55:41;;;;;;;0.70;0.70;;;20.10;99.90;;;;;;20493784;28;20666;-74
2021/09/27 23:05:46;;;;;;;1.60;0.43;;;20.00;99.90;;;;;;20493988;28;20316;-73
2021/09/27 23:15:50;;;;;;;0.73;0.73;;;19.90;99.90;;;;;;20493824;28;20208;-72
2021/09/27 23:25:58;;;;;;;1.03;1.03;;;19.80;99.90;;;;;;20519636;28;20651;-72
2021/09/27 23:36:02;;;;;;;1.27;0.97;;;19.80;99.90;;;;;;20534705;28;20615;-72
2021/09/27 23:46:07;;;;;;;1.37;1.27;;;19.70;99.90;;;;;;20492165;28;20559;-72
2021/09/27 23:56:11;;;;;;;1.33;0.87;;;19.70;99.90;;;;;;20474781;28;20201;-72
